sensor_id;sensor_type;location;lat;lon;timestamp;P1;durP1;ratioP1;P2;durP2;ratioP2
54452;SDS011;40363;52.270;10.546;2022-12-07T00:00:50;16.02;;;8.05;;
54452;SDS011;40363;52.270;10.546;2022-12-07T00:03:17;18.95;;;8.35;;
54452;SDS011;40363;52.270;10.546;2022-12-07T00:05:44;17.13;;;9.00;;
54452;SDS011;40363;52.270;10.546;2022-12-07T00:08:11;18.13;;;9.13;;
54452;SDS011;40363;52.270;10.546;2022-12-07T00:10:38;17.42;;;8.80;;
54452;SDS011;40363;52.270;10.546;2022-12-07T00:13:04;20.90;;;10.63;;
54452;SDS011;40363;52.270;10.546;2022-12-07T00:15:33;17.60;;;9.05;;
54452;SDS011;40363;52.270;10.546;2022-12-07T00:18:00;20.23;;;8.85;;
54452;SDS011;40363;52.270;10.546;2022-12-07T00:20:27;16.55;;;8.30;;
54452;SDS011;40363;52.270;10.546;2022-12-07T00:22:55;18.67;;;9.48;;
54452;SDS011;40363;52.270;10.546;2022-12-07T00:25:21;17.50;;;9.07;;
54452;SDS011;40363;52.270;10.546;2022-12-07T00:27:48;19.90;;;10.50;;
54452;SDS011;40363;52.270;10.546;2022-12-07T00:30:15;19.23;;;9.85;;
54452;SDS011;40363;52.270;10.546;2022-12-07T00:32:41;20.60;;;9.55;;
54452;SDS011;40363;52.270;10.546;2022-12-07T00:35:08;19.80;;;9.65;;
54452;SDS011;40363;52.270;10.546;2022-12-07T00:37:35;19.27;;;8.80;;
54452;SDS011;40363;52.270;10.546;2022-12-07T00:40:03;20.33;;;10.02;;
54452;SDS011;40363;52.270;10.546;2022-12-07T00:42:30;25.75;;;10.95;;
54452;SDS011;40363;52.270;10.546;2022-12-07T00:44:57;18.52;;;9.68;;
54452;SDS011;40363;52.270;10.546;2022-12-07T00:47:23;24.20;;;11.18;;
54452;SDS011;40363;52.270;10.546;2022-12-07T00:49:50;23.25;;;11.20;;
54452;SDS011;40363;52.270;10.546;2022-12-07T00:52:16;17.83;;;9.73;;
54452;SDS011;40363;52.270;10.546;2022-12-07T00:54:43;22.40;;;11.23;;
54452;SDS011;40363;52.270;10.546;2022-12-07T00:57:11;22.70;;;11.63;;
54452;SDS011;40363;52.270;10.546;2022-12-07T00:59:37;22.00;;;11.85;;
54452;SDS011;40363;52.270;10.546;2022-12-07T01:02:04;25.05;;;11.73;;
54452;SDS011;40363;52.270;10.546;2022-12-07T01:04:32;23.67;;;12.35;;
54452;SDS011;40363;52.270;10.546;2022-12-07T01:06:59;24.00;;;11.88;;
54452;SDS011;40363;52.270;10.546;2022-12-07T01:09:26;22.35;;;10.50;;
54452;SDS011;40363;52.270;10.546;2022-12-07T01:11:52;25.27;;;11.95;;
54452;SDS011;40363;52.270;10.546;2022-12-07T01:14:20;29.60;;;12.10;;
54452;SDS011;40363;52.270;10.546;2022-12-07T01:16:47;26.60;;;12.60;;
54452;SDS011;40363;52.270;10.546;2022-12-07T01:19:13;23.13;;;11.40;;
54452;SDS011;40363;52.270;10.546;2022-12-07T01:21:40;26.30;;;11.57;;
54452;SDS011;40363;52.270;10.546;2022-12-07T01:24:08;24.55;;;12.02;;
54452;SDS011;40363;52.270;10.546;2022-12-07T01:26:36;31.88;;;12.10;;
54452;SDS011;40363;52.270;10.546;2022-12-07T01:29:03;24.60;;;10.32;;
54452;SDS011;40363;52.270;10.546;2022-12-07T01:31:31;22.45;;;11.88;;
54452;SDS011;40363;52.270;10.546;2022-12-07T01:33:58;25.95;;;12.23;;
54452;SDS011;40363;52.270;10.546;2022-12-07T01:36:26;23.90;;;11.20;;
54452;SDS011;40363;52.270;10.546;2022-12-07T01:38:55;28.45;;;12.43;;
54452;SDS011;40363;52.270;10.546;2022-12-07T01:41:23;28.67;;;11.77;;
54452;SDS011;40363;52.270;10.546;2022-12-07T01:44:14;25.58;;;12.65;;
54452;SDS011;40363;52.270;10.546;2022-12-07T01:46:47;22.50;;;11.88;;
54452;SDS011;40363;52.270;10.546;2022-12-07T01:49:17;24.83;;;11.68;;
54452;SDS011;40363;52.270;10.546;2022-12-07T01:51:47;27.15;;;13.15;;
54452;SDS011;40363;52.270;10.546;2022-12-07T01:54:17;25.23;;;12.15;;
54452;SDS011;40363;52.270;10.546;2022-12-07T01:56:48;27.02;;;11.70;;
54452;SDS011;40363;52.270;10.546;2022-12-07T01:59:18;29.08;;;12.43;;
54452;SDS011;40363;52.270;10.546;2022-12-07T02:01:50;27.30;;;14.43;;
54452;SDS011;40363;52.270;10.546;2022-12-07T02:04:17;31.75;;;12.68;;
54452;SDS011;40363;52.270;10.546;2022-12-07T02:06:44;25.25;;;13.68;;
54452;SDS011;40363;52.270;10.546;2022-12-07T02:09:12;28.20;;;12.25;;
54452;SDS011;40363;52.270;10.546;2022-12-07T02:11:39;31.58;;;14.18;;
54452;SDS011;40363;52.270;10.546;2022-12-07T02:14:07;26.48;;;12.40;;
54452;SDS011;40363;52.270;10.546;2022-12-07T02:16:35;26.83;;;12.52;;
54452;SDS011;40363;52.270;10.546;2022-12-07T02:19:18;25.88;;;12.52;;
54452;SDS011;40363;52.270;10.546;2022-12-07T02:22:06;28.00;;;13.73;;
54452;SDS011;40363;52.270;10.546;2022-12-07T02:24:48;30.25;;;12.75;;
54452;SDS011;40363;52.270;10.546;2022-12-07T02:27:27;23.63;;;11.23;;
54452;SDS011;40363;52.270;10.546;2022-12-07T02:30:05;25.02;;;11.48;;
54452;SDS011;40363;52.270;10.546;2022-12-07T02:32:37;27.45;;;12.65;;
54452;SDS011;40363;52.270;10.546;2022-12-07T02:35:09;25.13;;;11.75;;
54452;SDS011;40363;52.270;10.546;2022-12-07T02:37:39;24.33;;;11.82;;
54452;SDS011;40363;52.270;10.546;2022-12-07T02:40:14;29.27;;;13.23;;
54452;SDS011;40363;52.270;10.546;2022-12-07T02:42:46;25.85;;;12.30;;
54452;SDS011;40363;52.270;10.546;2022-12-07T02:45:18;22.92;;;11.75;;
54452;SDS011;40363;52.270;10.546;2022-12-07T02:47:48;26.50;;;13.15;;
54452;SDS011;40363;52.270;10.546;2022-12-07T02:50:19;27.25;;;12.38;;
54452;SDS011;40363;52.270;10.546;2022-12-07T02:52:46;22.30;;;10.55;;
54452;SDS011;40363;52.270;10.546;2022-12-07T02:55:12;25.20;;;10.65;;
54452;SDS011;40363;52.270;10.546;2022-12-07T02:57:51;29.08;;;13.18;;
54452;SDS011;40363;52.270;10.546;2022-12-07T03:00:29;23.70;;;11.27;;
54452;SDS011;40363;52.270;10.546;2022-12-07T03:03:03;26.88;;;11.98;;
54452;SDS011;40363;52.270;10.546;2022-12-07T03:05:54;23.00;;;11.10;;
54452;SDS011;40363;52.270;10.546;2022-12-07T03:08:36;24.65;;;11.85;;
54452;SDS011;40363;52.270;10.546;2022-12-07T03:11:11;23.85;;;12.07;;
54452;SDS011;40363;52.270;10.546;2022-12-07T03:13:41;25.00;;;12.48;;
54452;SDS011;40363;52.270;10.546;2022-12-07T03:16:15;22.02;;;11.45;;
54452;SDS011;40363;52.270;10.546;2022-12-07T03:18:46;22.17;;;11.02;;
54452;SDS011;40363;52.270;10.546;2022-12-07T03:21:17;22.15;;;10.65;;
54452;SDS011;40363;52.270;10.546;2022-12-07T03:23:48;21.13;;;10.82;;
54452;SDS011;40363;52.270;10.546;2022-12-07T03:26:17;17.27;;;9.75;;
54452;SDS011;40363;52.270;10.546;2022-12-07T03:28:47;23.65;;;10.98;;
54452;SDS011;40363;52.270;10.546;2022-12-07T03:31:18;21.20;;;11.05;;
54452;SDS011;40363;52.270;10.546;2022-12-07T03:33:52;25.05;;;11.10;;
54452;SDS011;40363;52.270;10.546;2022-12-07T03:36:26;22.45;;;10.32;;
54452;SDS011;40363;52.270;10.546;2022-12-07T03:38:57;17.90;;;10.27;;
54452;SDS011;40363;52.270;10.546;2022-12-07T03:41:29;22.45;;;11.27;;
54452;SDS011;40363;52.270;10.546;2022-12-07T03:43:58;19.38;;;10.32;;
54452;SDS011;40363;52.270;10.546;2022-12-07T03:46:29;18.98;;;10.38;;
54452;SDS011;40363;52.270;10.546;2022-12-07T03:49:04;22.33;;;11.38;;
54452;SDS011;40363;52.270;10.546;2022-12-07T03:51:37;20.17;;;11.02;;
54452;SDS011;40363;52.270;10.546;2022-12-07T03:54:10;23.17;;;10.07;;
54452;SDS011;40363;52.270;10.546;2022-12-07T03:56:42;22.70;;;11.43;;
54452;SDS011;40363;52.270;10.546;2022-12-07T03:59:11;19.10;;;10.50;;
54452;SDS011;40363;52.270;10.546;2022-12-07T04:01:42;18.27;;;9.93;;
54452;SDS011;40363;52.270;10.546;2022-12-07T04:04:09;24.83;;;11.23;;
54452;SDS011;40363;52.270;10.546;2022-12-07T04:06:36;23.42;;;11.40;;
54452;SDS011;40363;52.270;10.546;2022-12-07T04:09:02;21.88;;;9.75;;
54452;SDS011;40363;52.270;10.546;2022-12-07T04:11:29;25.50;;;11.20;;
54452;SDS011;40363;52.270;10.546;2022-12-07T04:13:56;21.10;;;9.85;;
54452;SDS011;40363;52.270;10.546;2022-12-07T04:16:40;23.33;;;11.18;;
54452;SDS011;40363;52.270;10.546;2022-12-07T04:19:07;20.42;;;10.45;;
54452;SDS011;40363;52.270;10.546;2022-12-07T04:21:34;18.85;;;10.82;;
54452;SDS011;40363;52.270;10.546;2022-12-07T04:24:01;18.33;;;9.95;;
54452;SDS011;40363;52.270;10.546;2022-12-07T04:26:27;23.00;;;10.10;;
54452;SDS011;40363;52.270;10.546;2022-12-07T04:28:54;18.00;;;9.48;;
54452;SDS011;40363;52.270;10.546;2022-12-07T04:31:20;23.75;;;9.70;;
54452;SDS011;40363;52.270;10.546;2022-12-07T04:33:47;19.38;;;9.23;;
54452;SDS011;40363;52.270;10.546;2022-12-07T04:36:15;16.20;;;9.30;;
54452;SDS011;40363;52.270;10.546;2022-12-07T04:38:42;22.73;;;10.77;;
54452;SDS011;40363;52.270;10.546;2022-12-07T04:41:08;17.02;;;8.50;;
54452;SDS011;40363;52.270;10.546;2022-12-07T04:43:35;20.08;;;9.23;;
54452;SDS011;40363;52.270;10.546;2022-12-07T04:46:02;18.75;;;8.43;;
54452;SDS011;40363;52.270;10.546;2022-12-07T04:48:28;19.70;;;9.35;;
54452;SDS011;40363;52.270;10.546;2022-12-07T04:50:55;16.77;;;8.20;;
54452;SDS011;40363;52.270;10.546;2022-12-07T04:53:23;18.92;;;8.48;;
54452;SDS011;40363;52.270;10.546;2022-12-07T04:55:50;17.38;;;8.20;;
54452;SDS011;40363;52.270;10.546;2022-12-07T04:58:16;13.90;;;8.32;;
54452;SDS011;40363;52.270;10.546;2022-12-07T05:00:43;22.88;;;10.07;;
54452;SDS011;40363;52.270;10.546;2022-12-07T05:03:10;16.55;;;8.52;;
54452;SDS011;40363;52.270;10.546;2022-12-07T05:05:39;15.70;;;8.02;;
54452;SDS011;40363;52.270;10.546;2022-12-07T05:08:06;18.23;;;7.72;;
54452;SDS011;40363;52.270;10.546;2022-12-07T05:10:34;19.13;;;7.65;;
54452;SDS011;40363;52.270;10.546;2022-12-07T05:13:01;14.20;;;7.55;;
54452;SDS011;40363;52.270;10.546;2022-12-07T05:15:27;19.88;;;8.00;;
54452;SDS011;40363;52.270;10.546;2022-12-07T05:17:54;15.93;;;8.65;;
54452;SDS011;40363;52.270;10.546;2022-12-07T05:20:20;16.67;;;8.90;;
54452;SDS011;40363;52.270;10.546;2022-12-07T05:22:47;19.10;;;8.07;;
54452;SDS011;40363;52.270;10.546;2022-12-07T05:25:14;17.10;;;8.30;;
54452;SDS011;40363;52.270;10.546;2022-12-07T05:27:42;15.73;;;7.65;;
54452;SDS011;40363;52.270;10.546;2022-12-07T05:30:08;18.10;;;7.97;;
54452;SDS011;40363;52.270;10.546;2022-12-07T05:32:36;14.50;;;7.53;;
54452;SDS011;40363;52.270;10.546;2022-12-07T05:35:02;21.48;;;8.27;;
54452;SDS011;40363;52.270;10.546;2022-12-07T05:37:29;13.52;;;6.95;;
54452;SDS011;40363;52.270;10.546;2022-12-07T05:39:56;17.65;;;7.30;;
54452;SDS011;40363;52.270;10.546;2022-12-07T05:42:23;14.02;;;7.40;;
54452;SDS011;40363;52.270;10.546;2022-12-07T05:44:51;18.40;;;7.95;;
54452;SDS011;40363;52.270;10.546;2022-12-07T05:47:17;16.63;;;7.55;;
54452;SDS011;40363;52.270;10.546;2022-12-07T05:49:44;16.13;;;7.65;;
54452;SDS011;40363;52.270;10.546;2022-12-07T05:52:10;20.35;;;8.40;;
54452;SDS011;40363;52.270;10.546;2022-12-07T05:54:37;13.77;;;6.93;;
54452;SDS011;40363;52.270;10.546;2022-12-07T05:57:04;17.83;;;6.65;;
54452;SDS011;40363;52.270;10.546;2022-12-07T05:59:30;18.30;;;7.88;;
54452;SDS011;40363;52.270;10.546;2022-12-07T06:01:58;15.43;;;6.82;;
54452;SDS011;40363;52.270;10.546;2022-12-07T06:04:26;14.20;;;6.47;;
54452;SDS011;40363;52.270;10.546;2022-12-07T06:06:54;14.20;;;7.85;;
54452;SDS011;40363;52.270;10.546;2022-12-07T06:09:21;16.00;;;7.15;;
54452;SDS011;40363;52.270;10.546;2022-12-07T06:11:49;12.70;;;6.25;;
54452;SDS011;40363;52.270;10.546;2022-12-07T06:14:33;14.68;;;6.18;;
54452;SDS011;40363;52.270;10.546;2022-12-07T06:17:02;15.98;;;7.43;;
54452;SDS011;40363;52.270;10.546;2022-12-07T06:19:28;13.63;;;6.70;;
54452;SDS011;40363;52.270;10.546;2022-12-07T06:21:55;15.50;;;5.82;;
54452;SDS011;40363;52.270;10.546;2022-12-07T06:24:22;14.77;;;4.75;;
54452;SDS011;40363;52.270;10.546;2022-12-07T06:26:49;8.02;;;3.65;;
54452;SDS011;40363;52.270;10.546;2022-12-07T06:29:16;9.57;;;3.63;;
54452;SDS011;40363;52.270;10.546;2022-12-07T06:31:44;4.80;;;2.40;;
54452;SDS011;40363;52.270;10.546;2022-12-07T06:34:16;8.13;;;2.78;;
54452;SDS011;40363;52.270;10.546;2022-12-07T06:36:45;4.07;;;1.80;;
54452;SDS011;40363;52.270;10.546;2022-12-07T06:39:16;4.63;;;2.00;;
54452;SDS011;40363;52.270;10.546;2022-12-07T06:41:43;5.90;;;2.25;;
54452;SDS011;40363;52.270;10.546;2022-12-07T06:44:10;3.83;;;2.03;;
54452;SDS011;40363;52.270;10.546;2022-12-07T06:46:36;3.97;;;2.42;;
54452;SDS011;40363;52.270;10.546;2022-12-07T06:49:03;7.85;;;3.35;;
54452;SDS011;40363;52.270;10.546;2022-12-07T06:51:32;6.53;;;3.78;;
54452;SDS011;40363;52.270;10.546;2022-12-07T06:54:00;8.80;;;4.20;;
54452;SDS011;40363;52.270;10.546;2022-12-07T06:56:26;8.73;;;5.60;;
54452;SDS011;40363;52.270;10.546;2022-12-07T06:58:53;13.13;;;4.70;;
54452;SDS011;40363;52.270;10.546;2022-12-07T07:01:20;11.60;;;5.40;;
54452;SDS011;40363;52.270;10.546;2022-12-07T07:03:47;11.20;;;5.20;;
54452;SDS011;40363;52.270;10.546;2022-12-07T07:06:13;11.60;;;5.22;;
54452;SDS011;40363;52.270;10.546;2022-12-07T07:08:42;14.13;;;5.97;;
54452;SDS011;40363;52.270;10.546;2022-12-07T07:11:09;13.43;;;6.75;;
54452;SDS011;40363;52.270;10.546;2022-12-07T07:13:36;13.45;;;5.80;;
54452;SDS011;40363;52.270;10.546;2022-12-07T07:16:04;17.13;;;6.88;;
54452;SDS011;40363;52.270;10.546;2022-12-07T07:18:31;13.63;;;5.88;;
54452;SDS011;40363;52.270;10.546;2022-12-07T07:20:58;16.42;;;7.22;;
54452;SDS011;40363;52.270;10.546;2022-12-07T07:23:24;12.27;;;6.03;;
54452;SDS011;40363;52.270;10.546;2022-12-07T07:25:52;17.48;;;7.05;;
54452;SDS011;40363;52.270;10.546;2022-12-07T07:28:19;13.98;;;7.05;;
54452;SDS011;40363;52.270;10.546;2022-12-07T07:30:46;15.75;;;7.70;;
54452;SDS011;40363;52.270;10.546;2022-12-07T07:33:13;13.70;;;7.65;;
54452;SDS011;40363;52.270;10.546;2022-12-07T07:35:40;19.13;;;8.18;;
54452;SDS011;40363;52.270;10.546;2022-12-07T07:38:07;21.80;;;9.93;;
54452;SDS011;40363;52.270;10.546;2022-12-07T07:40:34;19.98;;;9.10;;
54452;SDS011;40363;52.270;10.546;2022-12-07T07:43:03;16.73;;;8.15;;
54452;SDS011;40363;52.270;10.546;2022-12-07T07:45:29;19.85;;;8.55;;
54452;SDS011;40363;52.270;10.546;2022-12-07T07:47:56;18.35;;;8.82;;
54452;SDS011;40363;52.270;10.546;2022-12-07T07:50:22;16.55;;;8.93;;
54452;SDS011;40363;52.270;10.546;2022-12-07T07:52:49;19.38;;;8.82;;
54452;SDS011;40363;52.270;10.546;2022-12-07T07:55:17;20.33;;;8.13;;
54452;SDS011;40363;52.270;10.546;2022-12-07T07:57:44;23.27;;;9.55;;
54452;SDS011;40363;52.270;10.546;2022-12-07T08:00:12;17.55;;;8.43;;
54452;SDS011;40363;52.270;10.546;2022-12-07T08:02:40;16.52;;;8.63;;
54452;SDS011;40363;52.270;10.546;2022-12-07T08:05:08;16.13;;;8.35;;
54452;SDS011;40363;52.270;10.546;2022-12-07T08:07:36;18.40;;;9.13;;
54452;SDS011;40363;52.270;10.546;2022-12-07T08:10:02;15.90;;;8.27;;
54452;SDS011;40363;52.270;10.546;2022-12-07T08:12:30;18.88;;;9.48;;
54452;SDS011;40363;52.270;10.546;2022-12-07T08:14:56;15.90;;;7.82;;
54452;SDS011;40363;52.270;10.546;2022-12-07T08:17:24;16.88;;;8.15;;
54452;SDS011;40363;52.270;10.546;2022-12-07T08:19:51;17.17;;;6.55;;
54452;SDS011;40363;52.270;10.546;2022-12-07T08:22:18;13.45;;;6.55;;
54452;SDS011;40363;52.270;10.546;2022-12-07T08:24:44;19.02;;;6.65;;
54452;SDS011;40363;52.270;10.546;2022-12-07T08:27:11;11.55;;;6.03;;
54452;SDS011;40363;52.270;10.546;2022-12-07T08:29:38;14.02;;;5.70;;
54452;SDS011;40363;52.270;10.546;2022-12-07T08:32:04;11.90;;;6.22;;
54452;SDS011;40363;52.270;10.546;2022-12-07T08:34:33;21.27;;;6.45;;
54452;SDS011;40363;52.270;10.546;2022-12-07T08:37:00;11.65;;;6.07;;
54452;SDS011;40363;52.270;10.546;2022-12-07T08:39:26;10.95;;;6.68;;
54452;SDS011;40363;52.270;10.546;2022-12-07T08:41:55;17.33;;;7.32;;
54452;SDS011;40363;52.270;10.546;2022-12-07T08:44:21;16.05;;;7.20;;
54452;SDS011;40363;52.270;10.546;2022-12-07T08:46:49;21.42;;;8.43;;
54452;SDS011;40363;52.270;10.546;2022-12-07T08:49:18;15.38;;;7.18;;
54452;SDS011;40363;52.270;10.546;2022-12-07T08:51:49;12.93;;;6.22;;
54452;SDS011;40363;52.270;10.546;2022-12-07T08:54:17;13.40;;;6.90;;
54452;SDS011;40363;52.270;10.546;2022-12-07T08:56:45;12.68;;;6.22;;
54452;SDS011;40363;52.270;10.546;2022-12-07T08:59:14;16.00;;;7.05;;
54452;SDS011;40363;52.270;10.546;2022-12-07T09:01:43;12.18;;;6.10;;
54452;SDS011;40363;52.270;10.546;2022-12-07T09:04:09;12.68;;;6.30;;
54452;SDS011;40363;52.270;10.546;2022-12-07T09:06:36;12.68;;;6.97;;
54452;SDS011;40363;52.270;10.546;2022-12-07T09:09:05;14.65;;;6.97;;
54452;SDS011;40363;52.270;10.546;2022-12-07T09:11:32;12.98;;;6.28;;
54452;SDS011;40363;52.270;10.546;2022-12-07T09:13:59;9.95;;;6.40;;
54452;SDS011;40363;52.270;10.546;2022-12-07T09:16:26;16.95;;;7.30;;
54452;SDS011;40363;52.270;10.546;2022-12-07T09:18:53;11.63;;;7.68;;
54452;SDS011;40363;52.270;10.546;2022-12-07T09:21:20;11.60;;;5.80;;
54452;SDS011;40363;52.270;10.546;2022-12-07T09:23:46;18.35;;;8.15;;
54452;SDS011;40363;52.270;10.546;2022-12-07T09:26:14;13.27;;;6.60;;
54452;SDS011;40363;52.270;10.546;2022-12-07T09:28:41;15.18;;;7.25;;
54452;SDS011;40363;52.270;10.546;2022-12-07T09:31:08;17.75;;;7.57;;
54452;SDS011;40363;52.270;10.546;2022-12-07T09:33:34;14.75;;;6.53;;
54452;SDS011;40363;52.270;10.546;2022-12-07T09:36:01;14.90;;;7.75;;
54452;SDS011;40363;52.270;10.546;2022-12-07T09:38:30;13.60;;;7.93;;
54452;SDS011;40363;52.270;10.546;2022-12-07T09:40:57;13.85;;;7.25;;
54452;SDS011;40363;52.270;10.546;2022-12-07T09:43:33;13.90;;;6.40;;
54452;SDS011;40363;52.270;10.546;2022-12-07T09:46:01;15.38;;;7.22;;
54452;SDS011;40363;52.270;10.546;2022-12-07T09:48:30;15.98;;;7.70;;
54452;SDS011;40363;52.270;10.546;2022-12-07T09:50:59;24.58;;;8.57;;
54452;SDS011;40363;52.270;10.546;2022-12-07T09:53:27;16.73;;;7.13;;
54452;SDS011;40363;52.270;10.546;2022-12-07T09:55:56;13.45;;;6.75;;
54452;SDS011;40363;52.270;10.546;2022-12-07T09:58:24;10.98;;;6.10;;
54452;SDS011;40363;52.270;10.546;2022-12-07T10:00:54;10.82;;;5.97;;
54452;SDS011;40363;52.270;10.546;2022-12-07T10:03:23;11.57;;;5.40;;
54452;SDS011;40363;52.270;10.546;2022-12-07T10:05:50;9.52;;;5.45;;
54452;SDS011;40363;52.270;10.546;2022-12-07T10:08:18;10.32;;;5.35;;
54452;SDS011;40363;52.270;10.546;2022-12-07T10:10:46;11.40;;;5.60;;
54452;SDS011;40363;52.270;10.546;2022-12-07T10:13:19;10.73;;;6.03;;
54452;SDS011;40363;52.270;10.546;2022-12-07T10:15:48;13.07;;;5.50;;
54452;SDS011;40363;52.270;10.546;2022-12-07T10:18:28;11.52;;;5.53;;
54452;SDS011;40363;52.270;10.546;2022-12-07T10:21:00;9.18;;;6.15;;
54452;SDS011;40363;52.270;10.546;2022-12-07T10:23:38;12.38;;;6.38;;
54452;SDS011;40363;52.270;10.546;2022-12-07T10:26:19;11.43;;;6.20;;
54452;SDS011;40363;52.270;10.546;2022-12-07T10:28:52;16.23;;;6.20;;
54452;SDS011;40363;52.270;10.546;2022-12-07T10:31:19;9.32;;;4.15;;
54452;SDS011;40363;52.270;10.546;2022-12-07T10:33:52;10.98;;;4.78;;
54452;SDS011;40363;52.270;10.546;2022-12-07T10:36:22;10.13;;;4.53;;
54452;SDS011;40363;52.270;10.546;2022-12-07T10:38:51;11.77;;;5.00;;
54452;SDS011;40363;52.270;10.546;2022-12-07T10:41:19;10.85;;;3.72;;
54452;SDS011;40363;52.270;10.546;2022-12-07T10:43:47;7.32;;;3.33;;
54452;SDS011;40363;52.270;10.546;2022-12-07T10:46:26;9.90;;;4.03;;
54452;SDS011;40363;52.270;10.546;2022-12-07T10:52:30;9.48;;;4.53;;
54452;SDS011;40363;52.270;10.546;2022-12-07T10:55:09;10.43;;;4.50;;
54452;SDS011;40363;52.270;10.546;2022-12-07T10:57:46;9.50;;;4.22;;
54452;SDS011;40363;52.270;10.546;2022-12-07T11:00:21;11.75;;;4.88;;
54452;SDS011;40363;52.270;10.546;2022-12-07T11:03:14;9.50;;;4.50;;
54452;SDS011;40363;52.270;10.546;2022-12-07T11:05:54;8.73;;;4.50;;
54452;SDS011;40363;52.270;10.546;2022-12-07T11:08:36;8.25;;;4.53;;
54452;SDS011;40363;52.270;10.546;2022-12-07T11:11:12;8.57;;;4.32;;
54452;SDS011;40363;52.270;10.546;2022-12-07T11:13:44;7.22;;;4.28;;
54452;SDS011;40363;52.270;10.546;2022-12-07T11:16:20;7.68;;;3.65;;
54452;SDS011;40363;52.270;10.546;2022-12-07T11:18:57;9.88;;;3.58;;
54452;SDS011;40363;52.270;10.546;2022-12-07T11:21:35;8.10;;;3.65;;
54452;SDS011;40363;52.270;10.546;2022-12-07T11:24:13;8.55;;;3.78;;
54452;SDS011;40363;52.270;10.546;2022-12-07T11:26:58;8.07;;;3.20;;
54452;SDS011;40363;52.270;10.546;2022-12-07T11:35:20;7.32;;;2.90;;
54452;SDS011;40363;52.270;10.546;2022-12-07T11:37:59;4.78;;;2.63;;
54452;SDS011;40363;52.270;10.546;2022-12-07T11:40:28;6.55;;;2.80;;
54452;SDS011;40363;52.270;10.546;2022-12-07T11:43:01;4.65;;;2.00;;
54452;SDS011;40363;52.270;10.546;2022-12-07T11:45:33;7.32;;;3.10;;
54452;SDS011;40363;52.270;10.546;2022-12-07T11:48:04;5.35;;;2.10;;
54452;SDS011;40363;52.270;10.546;2022-12-07T11:50:40;3.38;;;2.25;;
54452;SDS011;40363;52.270;10.546;2022-12-07T11:53:16;4.55;;;1.98;;
54452;SDS011;40363;52.270;10.546;2022-12-07T11:55:46;7.82;;;1.70;;
54452;SDS011;40363;52.270;10.546;2022-12-07T11:58:22;3.30;;;1.60;;
54452;SDS011;40363;52.270;10.546;2022-12-07T12:01:07;5.55;;;1.48;;
54452;SDS011;40363;52.270;10.546;2022-12-07T12:03:41;3.08;;;2.22;;
54452;SDS011;40363;52.270;10.546;2022-12-07T12:06:11;5.75;;;1.80;;
54452;SDS011;40363;52.270;10.546;2022-12-07T12:08:39;3.53;;;1.88;;
54452;SDS011;40363;52.270;10.546;2022-12-07T12:11:16;4.55;;;1.70;;
54452;SDS011;40363;52.270;10.546;2022-12-07T12:14:11;7.25;;;2.05;;
54452;SDS011;40363;52.270;10.546;2022-12-07T12:19:59;7.03;;;1.98;;
54452;SDS011;40363;52.270;10.546;2022-12-07T12:22:32;4.18;;;2.15;;
54452;SDS011;40363;52.270;10.546;2022-12-07T12:25:05;3.58;;;1.90;;
54452;SDS011;40363;52.270;10.546;2022-12-07T12:30:06;7.50;;;2.60;;
54452;SDS011;40363;52.270;10.546;2022-12-07T12:32:50;4.38;;;2.25;;
54452;SDS011;40363;52.270;10.546;2022-12-07T12:35:26;3.55;;;2.33;;
54452;SDS011;40363;52.270;10.546;2022-12-07T12:37:56;2.15;;;1.85;;
54452;SDS011;40363;52.270;10.546;2022-12-07T12:40:55;4.75;;;2.15;;
54452;SDS011;40363;52.270;10.546;2022-12-07T12:58:32;3.58;;;1.92;;
